Time;durP1;ratioP1;P1;durP2;ratioP2;P2;SDS_P1;SDS_P2;PMS_P1;PMS_P2;Temp;Humidity;BMP_temperature;BMP_pressure;BME280_temperature;BME280_humidity;BME280_pressure;Samples;Min_cycle;Max_cycle;Signal;HPM_P1;HPM_P2
2021/11/22 00:00:45;;;;;;;9.20;4.38;;;;;;;;;;5052597;28;20199;-79
2021/11/22 00:03:11;;;;;;;18.00;4.68;;;;;;;;;;5053051;28;20181;-80
2021/11/22 00:05:37;;;;;;;8.32;4.85;;;;;;;;;;5052925;28;20171;-78
2021/11/22 00:08:03;;;;;;;26.42;5.25;;;;;;;;;;5051727;28;20626;-79
2021/11/22 00:10:30;;;;;;;6.78;3.78;;;;;;;;;;5051311;28;20660;-80
2021/11/22 00:12:56;;;;;;;7.72;4.60;;;;;;;;;;5052911;28;20178;-81
2021/11/22 00:15:22;;;;;;;9.52;4.30;;;;;;;;;;5051564;28;20183;-80
2021/11/22 00:17:48;;;;;;;8.35;4.68;;;;;;;;;;5035151;28;20189;-79
2021/11/22 00:20:15;;;;;;;6.85;4.28;;;;;;;;;;5052693;28;20196;-79
2021/11/22 00:22:43;;;;;;;16.80;5.20;;;;;;;;;;5052969;28;20208;-77
2021/11/22 00:25:10;;;;;;;15.80;5.25;;;;;;;;;;5051788;28;20216;-80
2021/11/22 00:27:36;;;;;;;11.93;5.30;;;;;;;;;;5052841;28;20180;-78
2021/11/22 00:30:04;;;;;;;8.10;4.95;;;;;;;;;;5052659;28;20277;-79
2021/11/22 00:32:33;;;;;;;8.63;4.97;;;;;;;;;;5051659;28;20648;-77
2021/11/22 00:34:59;;;;;;;11.20;4.90;;;;;;;;;;5052818;28;20178;-77
2021/11/22 00:37:31;;;;;;;9.05;4.45;;;;;;;;;;5052827;28;20233;-77
2021/11/22 00:39:57;;;;;;;9.15;5.85;;;;;;;;;;5052331;28;20256;-78
2021/11/22 00:42:23;;;;;;;19.85;4.85;;;;;;;;;;5052900;28;20247;-79
2021/11/22 00:44:49;;;;;;;7.88;4.60;;;;;;;;;;5051561;28;20564;-79
2021/11/22 00:47:15;;;;;;;8.60;5.20;;;;;;;;;;5052791;28;20204;-79
2021/11/22 00:49:41;;;;;;;8.13;4.82;;;;;;;;;;5052156;28;20182;-79
2021/11/22 00:52:07;;;;;;;12.27;5.65;;;;;;;;;;5052566;28;20188;-79
2021/11/22 00:54:34;;;;;;;8.43;4.97;;;;;;;;;;5052640;28;20179;-80
2021/11/22 00:57:00;;;;;;;8.98;5.05;;;;;;;;;;5052634;28;20686;-78
2021/11/22 00:59:26;;;;;;;12.05;5.90;;;;;;;;;;5055188;28;20182;-80
2021/11/22 01:01:52;;;;;;;11.05;6.35;;;;;;;;;;5056062;28;20248;-79
2021/11/22 01:04:18;;;;;;;7.90;5.78;;;;;;;;;;5056282;28;20174;-79
2021/11/22 01:06:44;;;;;;;18.83;6.03;;;;;;;;;;5054870;28;20189;-80
2021/11/22 01:09:10;;;;;;;13.13;6.00;;;;;;;;;;5056013;28;20184;-79
2021/11/22 01:11:36;;;;;;;16.42;6.43;;;;;;;;;;5054737;28;20690;-79
2021/11/22 01:14:03;;;;;;;14.98;5.95;;;;;;;;;;5055974;28;20177;-79
2021/11/22 01:16:30;;;;;;;13.23;6.10;;;;;;;;;;5055892;28;20640;-77
2021/11/22 01:18:56;;;;;;;16.98;6.78;;;;;;;;;;5055058;28;20176;-79
2021/11/22 01:21:35;;;;;;;15.48;7.25;;;;;;;;;;5055461;28;20297;-79
2021/11/22 01:24:01;;;;;;;23.92;7.50;;;;;;;;;;5055730;28;20201;-81
2021/11/22 01:26:27;;;;;;;21.92;7.38;;;;;;;;;;5055801;28;20183;-80
2021/11/22 01:28:53;;;;;;;20.15;7.60;;;;;;;;;;5038066;28;21284;-79
2021/11/22 01:31:19;;;;;;;11.43;6.90;;;;;;;;;;5054349;28;20561;-80
2021/11/22 01:33:45;;;;;;;12.18;7.40;;;;;;;;;;5056090;28;20174;-80
2021/11/22 01:36:11;;;;;;;12.05;7.57;;;;;;;;;;5054547;28;20637;-79
2021/11/22 01:38:37;;;;;;;16.60;8.38;;;;;;;;;;5054579;28;20544;-79
2021/11/22 01:41:05;;;;;;;15.63;8.45;;;;;;;;;;5055104;28;20294;-77
2021/11/22 01:43:32;;;;;;;23.48;9.55;;;;;;;;;;5055638;28;20197;-80
2021/11/22 01:45:58;;;;;;;22.20;8.65;;;;;;;;;;5055445;28;20258;-79
2021/11/22 01:48:25;;;;;;;23.65;11.13;;;;;;;;;;5055494;28;20184;-78
2021/11/22 01:50:57;;;;;;;18.52;9.98;;;;;;;;;;5055096;28;20204;-80
2021/11/22 01:53:55;;;;;;;12.25;8.40;;;;;;;;;;5055679;28;20204;-77
2021/11/22 01:56:21;;;;;;;23.83;10.85;;;;;;;;;;5043244;28;20203;-78
2021/11/22 01:58:48;;;;;;;27.50;13.40;;;;;;;;;;5055318;28;20184;-80
2021/11/22 02:01:14;;;;;;;21.63;13.65;;;;;;;;;;5053626;28;20209;-80
2021/11/22 02:03:40;;;;;;;24.50;17.65;;;;;;;;;;5055212;28;20179;-78
2021/11/22 02:06:06;;;;;;;31.77;16.30;;;;;;;;;;5055082;28;20180;-78
2021/11/22 02:08:32;;;;;;;34.05;18.38;;;;;;;;;;5054914;28;20178;-78
2021/11/22 02:10:58;;;;;;;27.50;17.83;;;;;;;;;;5052227;28;20228;-79
2021/11/22 02:13:27;;;;;;;33.35;18.73;;;;;;;;;;5054943;28;20177;-79
2021/11/22 02:15:53;;;;;;;30.05;16.95;;;;;;;;;;5054879;28;20190;-78
2021/11/22 02:18:19;;;;;;;30.02;18.38;;;;;;;;;;5054676;28;20189;-78
2021/11/22 02:20:46;;;;;;;41.40;21.30;;;;;;;;;;5052996;28;20207;-78
2021/11/22 02:23:12;;;;;;;40.55;21.00;;;;;;;;;;5054771;28;20177;-80
2021/11/22 02:25:39;;;;;;;37.45;20.50;;;;;;;;;;5053433;28;20665;-80
2021/11/22 02:28:06;;;;;;;37.47;20.73;;;;;;;;;;5053805;28;20181;-81
2021/11/22 02:30:38;;;;;;;35.22;18.13;;;;;;;;;;5054159;28;20225;-79
2021/11/22 02:33:06;;;;;;;32.15;18.38;;;;;;;;;;5054803;28;20196;-79
2021/11/22 02:35:32;;;;;;;33.80;20.17;;;;;;;;;;5054621;28;20172;-80
2021/11/22 02:37:58;;;;;;;42.47;21.55;;;;;;;;;;5054617;28;20178;-80
2021/11/22 02:40:24;;;;;;;32.40;19.40;;;;;;;;;;5054004;28;20205;-80
2021/11/22 02:42:52;;;;;;;33.27;19.10;;;;;;;;;;5053123;28;20224;-79
2021/11/22 02:45:19;;;;;;;39.88;21.80;;;;;;;;;;5054381;28;20422;-80
2021/11/22 02:47:47;;;;;;;39.72;20.83;;;;;;;;;;5054517;28;20177;-81
2021/11/22 02:50:14;;;;;;;35.38;19.90;;;;;;;;;;5054030;28;20195;-81
2021/11/22 02:52:41;;;;;;;42.65;22.88;;;;;;;;;;5052994;28;20185;-79
2021/11/22 02:55:08;;;;;;;28.33;19.60;;;;;;;;;;5054384;28;20226;-80
2021/11/22 02:57:34;;;;;;;34.13;20.80;;;;;;;;;;5052897;28;20261;-78
2021/11/22 03:00:00;;;;;;;34.17;21.90;;;;;;;;;;5053766;28;20197;-80
2021/11/22 03:02:26;;;;;;;36.58;23.25;;;;;;;;;;5053853;28;20259;-81
2021/11/22 03:04:52;;;;;;;35.90;21.30;;;;;;;;;;5053800;28;20185;-80
2021/11/22 03:07:18;;;;;;;38.70;22.17;;;;;;;;;;5053950;28;20181;-79
2021/11/22 03:09:45;;;;;;;38.20;23.90;;;;;;;;;;5053440;28;20173;-80
2021/11/22 03:12:12;;;;;;;45.00;23.70;;;;;;;;;;5053790;28;20181;-79
2021/11/22 03:14:38;;;;;;;39.70;21.23;;;;;;;;;;5053776;28;20181;-80
2021/11/22 03:17:04;;;;;;;39.95;22.25;;;;;;;;;;5053501;28;20566;-79
2021/11/22 03:19:30;;;;;;;36.95;22.40;;;;;;;;;;5053408;28;20653;-79
2021/11/22 03:21:58;;;;;;;43.75;21.60;;;;;;;;;;5053229;28;20248;-80
2021/11/22 03:24:24;;;;;;;34.50;18.92;;;;;;;;;;5053728;28;20561;-79
2021/11/22 03:26:50;;;;;;;35.97;21.38;;;;;;;;;;5053557;28;20627;-80
2021/11/22 03:29:16;;;;;;;39.40;22.25;;;;;;;;;;5053079;28;20181;-79
2021/11/22 03:31:42;;;;;;;42.53;21.23;;;;;;;;;;5053434;28;20207;-79
2021/11/22 03:34:11;;;;;;;43.50;22.37;;;;;;;;;;5053425;28;20268;-80
2021/11/22 03:36:37;;;;;;;37.40;21.23;;;;;;;;;;5054048;28;20408;-80
2021/11/22 03:39:10;;;;;;;40.25;22.77;;;;;;;;;;5053589;28;20171;-80
2021/11/22 03:41:36;;;;;;;34.55;21.02;;;;;;;;;;5053551;28;20197;-78
2021/11/22 03:44:13;;;;;;;42.53;22.90;;;;;;;;;;5053538;28;20174;-81
2021/11/22 03:46:40;;;;;;;46.47;23.52;;;;;;;;;;5053548;28;20173;-77
2021/11/22 03:49:06;;;;;;;40.58;22.52;;;;;;;;;;5053222;28;20174;-78
2021/11/22 03:51:33;;;;;;;42.20;23.75;;;;;;;;;;5052848;28;20219;-80
2021/11/22 03:53:59;;;;;;;41.50;24.45;;;;;;;;;;5053232;28;20178;-80
2021/11/22 03:56:25;;;;;;;43.85;24.30;;;;;;;;;;5053168;28;20180;-79
2021/11/22 03:58:51;;;;;;;35.77;20.27;;;;;;;;;;5052941;28;20507;-78
2021/11/22 04:01:17;;;;;;;41.63;23.67;;;;;;;;;;5052462;28;20811;-80
2021/11/22 04:03:44;;;;;;;38.55;24.45;;;;;;;;;;5035367;28;20173;-81
2021/11/22 04:06:10;;;;;;;42.15;21.98;;;;;;;;;;5053074;28;20170;-79
2021/11/22 04:08:36;;;;;;;34.75;21.70;;;;;;;;;;5053037;28;20181;-80
2021/11/22 04:11:02;;;;;;;41.00;21.35;;;;;;;;;;5051306;28;20201;-79
2021/11/22 04:13:28;;;;;;;32.85;21.55;;;;;;;;;;5052851;28;20566;-78
2021/11/22 04:15:54;;;;;;;43.47;22.97;;;;;;;;;;5052942;28;20213;-79
2021/11/22 04:18:20;;;;;;;41.10;25.70;;;;;;;;;;5052787;28;20789;-80
2021/11/22 04:20:46;;;;;;;42.50;20.92;;;;;;;;;;5052390;28;20432;-78
2021/11/22 04:23:12;;;;;;;41.08;22.98;;;;;;;;;;5051489;28;20185;-78
2021/11/22 04:25:38;;;;;;;44.88;23.80;;;;;;;;;;5052666;28;20544;-78
2021/11/22 04:28:05;;;;;;;43.80;23.58;;;;;;;;;;5052863;28;20256;-79
2021/11/22 04:30:31;;;;;;;43.97;23.33;;;;;;;;;;5052572;28;20233;-80
2021/11/22 04:32:58;;;;;;;41.15;21.52;;;;;;;;;;5053782;28;20185;-78
2021/11/22 04:35:24;;;;;;;41.13;23.30;;;;;;;;;;5056928;28;20257;-78
2021/11/22 04:37:50;;;;;;;38.37;23.13;;;;;;;;;;5056888;28;20665;-80
2021/11/22 04:40:17;;;;;;;34.03;20.58;;;;;;;;;;5056376;28;20803;-81
2021/11/22 04:42:47;;;;;;;37.63;22.60;;;;;;;;;;5056685;28;20216;-80
2021/11/22 04:45:14;;;;;;;41.20;21.42;;;;;;;;;;5055603;28;20174;-79
2021/11/22 04:47:40;;;;;;;40.53;23.42;;;;;;;;;;5056489;28;20231;-78
2021/11/22 04:50:07;;;;;;;38.75;20.42;;;;;;;;;;5056210;28;20204;-79
2021/11/22 04:52:33;;;;;;;37.70;22.55;;;;;;;;;;5056727;28;20646;-81
2021/11/22 04:54:59;;;;;;;33.05;20.98;;;;;;;;;;5056600;28;20184;-78
2021/11/22 04:57:25;;;;;;;32.60;20.33;;;;;;;;;;5056337;28;20188;-78
2021/11/22 04:59:51;;;;;;;36.33;20.50;;;;;;;;;;5054522;28;20443;-78
2021/11/22 05:02:17;;;;;;;38.22;21.23;;;;;;;;;;5056342;28;20199;-79
2021/11/22 05:04:43;;;;;;;31.33;20.30;;;;;;;;;;5056364;28;20178;-79
2021/11/22 05:07:09;;;;;;;38.92;22.35;;;;;;;;;;5055011;28;20187;-78
2021/11/22 05:09:38;;;;;;;36.50;22.02;;;;;;;;;;5055628;28;20590;-80
2021/11/22 05:12:04;;;;;;;35.90;21.80;;;;;;;;;;5056062;28;20256;-78
2021/11/22 05:14:30;;;;;;;31.27;17.63;;;;;;;;;;5056072;28;20188;-80
2021/11/22 05:16:56;;;;;;;32.33;20.23;;;;;;;;;;5055996;28;20246;-79
2021/11/22 05:19:24;;;;;;;31.77;20.17;;;;;;;;;;5055699;28;20181;-78
2021/11/22 05:21:50;;;;;;;31.35;19.83;;;;;;;;;;5055584;28;20232;-79
2021/11/22 05:24:16;;;;;;;43.63;21.00;;;;;;;;;;5055954;28;20648;-79
2021/11/22 05:26:42;;;;;;;27.88;18.48;;;;;;;;;;5056014;28;20184;-77
2021/11/22 05:29:09;;;;;;;37.33;19.17;;;;;;;;;;5055868;28;20169;-78
2021/11/22 05:31:37;;;;;;;30.48;17.67;;;;;;;;;;5055532;28;20421;-79
2021/11/22 05:34:03;;;;;;;25.40;17.10;;;;;;;;;;5055657;28;20174;-78
2021/11/22 05:36:29;;;;;;;29.85;18.48;;;;;;;;;;5055647;28;20245;-78
2021/11/22 05:38:55;;;;;;;27.58;18.23;;;;;;;;;;5055606;28;20178;-79
2021/11/22 05:41:21;;;;;;;25.35;17.17;;;;;;;;;;5055391;28;20213;-79
2021/11/22 05:43:47;;;;;;;26.48;16.63;;;;;;;;;;5054966;28;20177;-80
2021/11/22 05:46:13;;;;;;;26.10;16.65;;;;;;;;;;5055611;28;20201;-80
2021/11/22 05:48:39;;;;;;;24.30;15.07;;;;;;;;;;5055661;28;20626;-78
2021/11/22 05:51:08;;;;;;;20.00;14.97;;;;;;;;;;5053744;28;20448;-80
2021/11/22 05:53:34;;;;;;;23.63;13.35;;;;;;;;;;5054172;28;20432;-81
2021/11/22 05:56:01;;;;;;;26.77;18.33;;;;;;;;;;5055339;28;20592;-80
2021/11/22 05:58:29;;;;;;;20.00;14.18;;;;;;;;;;5055235;28;20661;-80
2021/11/22 06:00:55;;;;;;;26.58;14.43;;;;;;;;;;5054822;28;20693;-79
2021/11/22 06:03:21;;;;;;;18.50;13.73;;;;;;;;;;5055112;28;20182;-81
2021/11/22 06:05:47;;;;;;;17.30;13.65;;;;;;;;;;5055180;28;20899;-78
2021/11/22 06:08:14;;;;;;;17.80;13.20;;;;;;;;;;5055104;28;20226;-80
2021/11/22 06:10:40;;;;;;;16.27;11.15;;;;;;;;;;5054520;28;20432;-80
2021/11/22 06:13:10;;;;;;;16.57;12.37;;;;;;;;;;5054952;28;20182;-82
2021/11/22 06:15:36;;;;;;;17.73;11.63;;;;;;;;;;5053801;28;20925;-80
2021/11/22 06:18:02;;;;;;;16.52;11.65;;;;;;;;;;5054728;28;20194;-79
2021/11/22 06:20:28;;;;;;;14.35;11.50;;;;;;;;;;5054397;28;20189;-78
2021/11/22 06:22:54;;;;;;;17.23;12.45;;;;;;;;;;5054663;28;20248;-79
2021/11/22 06:25:20;;;;;;;20.48;12.13;;;;;;;;;;5054686;28;20207;-79
2021/11/22 06:27:46;;;;;;;14.88;10.88;;;;;;;;;;5054702;28;20223;-79
2021/11/22 06:30:13;;;;;;;15.75;11.77;;;;;;;;;;5054200;28;20650;-77
2021/11/22 06:32:39;;;;;;;14.80;11.48;;;;;;;;;;5054543;28;20189;-78
2021/11/22 06:35:05;;;;;;;16.85;11.18;;;;;;;;;;5054617;28;20177;-78
2021/11/22 06:37:33;;;;;;;17.45;12.10;;;;;;;;;;5054690;28;20220;-78
2021/11/22 06:39:59;;;;;;;17.95;12.98;;;;;;;;;;5054176;28;20662;-79
2021/11/22 06:42:25;;;;;;;15.63;11.98;;;;;;;;;;5054389;28;20641;-78
2021/11/22 06:44:51;;;;;;;16.70;11.97;;;;;;;;;;5054483;28;20265;-80
2021/11/22 06:47:17;;;;;;;16.13;12.10;;;;;;;;;;5054376;28;20430;-78
2021/11/22 06:49:44;;;;;;;15.68;10.98;;;;;;;;;;5053916;28;20211;-79
2021/11/22 06:52:10;;;;;;;14.30;10.57;;;;;;;;;;5054269;28;20180;-78
2021/11/22 06:54:36;;;;;;;16.63;12.15;;;;;;;;;;5052930;28;20176;-79
2021/11/22 06:57:02;;;;;;;17.90;11.80;;;;;;;;;;5053690;28;20187;-80
2021/11/22 06:59:29;;;;;;;13.43;10.25;;;;;;;;;;5053960;28;20411;-80
2021/11/22 07:01:55;;;;;;;17.25;10.95;;;;;;;;;;5054262;28;20606;-78
2021/11/22 07:04:21;;;;;;;17.50;12.13;;;;;;;;;;5052750;28;20185;-77
2021/11/22 07:06:47;;;;;;;12.85;11.10;;;;;;;;;;5054041;28;20184;-79
2021/11/22 07:09:15;;;;;;;16.23;11.23;;;;;;;;;;5052380;28;20177;-80
2021/11/22 07:11:41;;;;;;;14.35;10.95;;;;;;;;;;5053772;28;20185;-80
2021/11/22 07:14:07;;;;;;;14.00;10.20;;;;;;;;;;5053843;28;20180;-79
2021/11/22 07:16:33;;;;;;;15.65;11.27;;;;;;;;;;5053684;28;20544;-79
2021/11/22 07:18:59;;;;;;;13.70;10.38;;;;;;;;;;5053741;28;20178;-78
2021/11/22 07:21:25;;;;;;;13.60;10.02;;;;;;;;;;5052199;28;20205;-80
2021/11/22 07:23:51;;;;;;;15.85;10.82;;;;;;;;;;5053611;28;20512;-82
2021/11/22 07:26:17;;;;;;;15.57;10.82;;;;;;;;;;5053861;28;20184;-82
2021/11/22 07:28:43;;;;;;;15.25;10.68;;;;;;;;;;5053618;28;20582;-80
2021/11/22 07:31:10;;;;;;;18.70;10.52;;;;;;;;;;5052065;28;20212;-81
2021/11/22 07:33:36;;;;;;;16.13;10.32;;;;;;;;;;5053525;28;20543;-81
2021/11/22 07:36:01;;;;;;;18.85;11.98;;;;;;;;;;5052600;28;20196;-79
2021/11/22 07:38:28;;;;;;;14.73;11.00;;;;;;;;;;5053549;28;20184;-80
2021/11/22 07:40:55;;;;;;;27.25;12.10;;;;;;;;;;5052768;28;20471;-80
2021/11/22 07:43:21;;;;;;;15.32;11.93;;;;;;;;;;5053511;28;20184;-81
2021/11/22 07:45:47;;;;;;;19.58;12.85;;;;;;;;;;5053129;28;20637;-81
2021/11/22 07:48:14;;;;;;;15.73;11.98;;;;;;;;;;5053343;28;20557;-78
2021/11/22 07:50:40;;;;;;;17.42;12.27;;;;;;;;;;5050520;28;20197;-81
2021/11/22 07:53:06;;;;;;;16.15;12.60;;;;;;;;;;5051195;28;20667;-81
2021/11/22 07:55:32;;;;;;;16.25;12.82;;;;;;;;;;5053348;28;20191;-82
2021/11/22 07:57:58;;;;;;;20.33;13.90;;;;;;;;;;5052864;28;20177;-79
2021/11/22 08:00:26;;;;;;;18.10;13.43;;;;;;;;;;5052748;28;20205;-80
2021/11/22 08:02:52;;;;;;;19.17;14.27;;;;;;;;;;5051663;28;20294;-81
2021/11/22 08:05:18;;;;;;;17.10;13.27;;;;;;;;;;5053073;28;20220;-80
2021/11/22 08:07:44;;;;;;;20.00;14.25;;;;;;;;;;5053042;28;20669;-80
2021/11/22 08:10:32;;;;;;;16.42;13.05;;;;;;;;;;5052773;28;20225;-81
2021/11/22 08:13:17;;;;;;;18.58;13.25;;;;;;;;;;5053076;28;20251;-83
2021/11/22 08:15:42;;;;;;;16.95;13.18;;;;;;;;;;5053070;28;20180;-81
2021/11/22 08:18:09;;;;;;;21.05;14.70;;;;;;;;;;5052934;28;20192;-80
2021/11/22 08:20:35;;;;;;;18.13;12.95;;;;;;;;;;5052558;28;20274;-80
2021/11/22 08:23:01;;;;;;;17.08;13.57;;;;;;;;;;5052897;28;20201;-81
2021/11/22 08:25:28;;;;;;;16.85;12.38;;;;;;;;;;5052766;28;20219;-79
2021/11/22 08:27:55;;;;;;;20.13;14.25;;;;;;;;;;5052909;28;20165;-80
2021/11/22 08:30:22;;;;;;;22.83;15.45;;;;;;;;;;5052631;28;20228;-79
2021/11/22 08:32:49;;;;;;;19.05;14.10;;;;;;;;;;5052891;28;20177;-81
2021/11/22 08:35:16;;;;;;;22.77;15.73;;;;;;;;;;5052747;28;20181;-82
2021/11/22 08:37:42;;;;;;;18.60;14.10;;;;;;;;;;5051579;28;20181;-81
2021/11/22 08:40:10;;;;;;;19.65;14.70;;;;;;;;;;5052575;28;20211;-80
2021/11/22 08:42:36;;;;;;;17.85;13.70;;;;;;;;;;5052731;28;20606;-80
2021/11/22 08:45:02;;;;;;;18.80;14.88;;;;;;;;;;5052745;28;20193;-82
2021/11/22 08:47:28;;;;;;;18.17;13.80;;;;;;;;;;5052566;28;20235;-82
2021/11/22 08:49:55;;;;;;;21.50;15.55;;;;;;;;;;5052337;28;20214;-81
2021/11/22 08:52:24;;;;;;;19.55;14.52;;;;;;;;;;5052619;28;20178;-81
2021/11/22 08:54:51;;;;;;;18.17;14.43;;;;;;;;;;5052571;28;20208;-79
2021/11/22 08:57:18;;;;;;;18.80;13.50;;;;;;;;;;5052653;28;20181;-81
2021/11/22 08:59:44;;;;;;;17.83;14.23;;;;;;;;;;5052123;28;20185;-80
2021/11/22 09:02:11;;;;;;;18.80;14.63;;;;;;;;;;5052438;28;20208;-80
2021/11/22 09:04:38;;;;;;;20.30;15.27;;;;;;;;;;5052745;28;20181;-81
2021/11/22 09:07:04;;;;;;;18.70;13.80;;;;;;;;;;5052712;28;20178;-81
2021/11/22 09:09:30;;;;;;;17.60;15.07;;;;;;;;;;5052267;28;20230;-82
2021/11/22 09:11:56;;;;;;;19.10;15.35;;;;;;;;;;5051247;28;20217;-79
2021/11/22 09:14:22;;;;;;;17.27;14.27;;;;;;;;;;5052461;28;20189;-80
2021/11/22 09:16:48;;;;;;;18.92;14.35;;;;;;;;;;5051064;28;20663;-80
2021/11/22 09:19:14;;;;;;;19.42;15.02;;;;;;;;;;5053255;28;20177;-81
2021/11/22 09:21:41;;;;;;;17.05;13.07;;;;;;;;;;5055744;28;20205;-79
2021/11/22 09:24:07;;;;;;;14.27;12.43;;;;;;;;;;5054838;28;20165;-78
2021/11/22 09:26:33;;;;;;;15.88;13.88;;;;;;;;;;5056011;28;20285;-81
2021/11/22 09:28:59;;;;;;;13.55;11.95;;;;;;;;;;5056126;28;20174;-80
2021/11/22 09:31:26;;;;;;;13.85;11.43;;;;;;;;;;5055715;28;20211;-82
2021/11/22 09:33:53;;;;;;;12.32;10.05;;;;;;;;;;5054662;28;20268;-81
2021/11/22 09:36:20;;;;;;;12.15;9.73;;;;;;;;;;5054481;28;20207;-80
2021/11/22 09:38:46;;;;;;;11.60;10.05;;;;;;;;;;5055785;28;20174;-82
2021/11/22 09:41:12;;;;;;;10.55;9.45;;;;;;;;;;5055281;28;20214;-80
2021/11/22 09:43:42;;;;;;;10.82;8.50;;;;;;;;;;5055541;28;20560;-82
2021/11/22 09:46:08;;;;;;;9.30;8.32;;;;;;;;;;5054300;28;20178;-79
2021/11/22 09:48:34;;;;;;;10.18;9.18;;;;;;;;;;5055450;28;20180;-78
2021/11/22 09:51:01;;;;;;;9.50;8.13;;;;;;;;;;5055024;28;20192;-80
2021/11/22 09:53:28;;;;;;;9.32;8.43;;;;;;;;;;5054108;28;20211;-81
2021/11/22 09:55:54;;;;;;;10.07;8.40;;;;;;;;;;5055597;28;20247;-80
2021/11/22 09:58:20;;;;;;;10.15;8.48;;;;;;;;;;5055447;28;20626;-80
2021/11/22 10:00:48;;;;;;;8.25;7.43;;;;;;;;;;5054731;28;20213;-81
2021/11/22 10:03:15;;;;;;;8.70;7.80;;;;;;;;;;5054084;28;20189;-83
2021/11/22 10:05:42;;;;;;;8.18;7.38;;;;;;;;;;5055096;28;20182;-80
2021/11/22 10:08:10;;;;;;;8.13;7.15;;;;;;;;;;5055225;28;20574;-83
2021/11/22 10:10:43;;;;;;;7.10;6.20;;;;;;;;;;5054706;28;20280;-79
2021/11/22 10:13:42;;;;;;;7.55;6.85;;;;;;;;;;5054993;28;20181;-83
2021/11/22 10:16:08;;;;;;;9.27;6.75;;;;;;;;;;5042942;28;20189;-80
2021/11/22 10:18:38;;;;;;;6.35;5.85;;;;;;;;;;5054893;28;20212;-81
2021/11/22 10:21:06;;;;;;;6.97;6.28;;;;;;;;;;5054324;28;20576;-80
2021/11/22 10:23:33;;;;;;;8.88;6.47;;;;;;;;;;5054614;28;20165;-81
2021/11/22 10:25:59;;;;;;;7.15;6.45;;;;;;;;;;5054517;28;20177;-80
2021/11/22 10:28:25;;;;;;;7.75;6.95;;;;;;;;;;5054391;28;20208;-81
2021/11/22 10:30:58;;;;;;;8.20;7.40;;;;;;;;;;5053225;28;20221;-80
2021/11/22 10:33:43;;;;;;;7.97;6.63;;;;;;;;;;5053287;28;20438;-81
2021/11/22 10:36:10;;;;;;;8.25;5.60;;;;;;;;;;5054509;28;20203;-82
2021/11/22 10:38:37;;;;;;;6.25;5.65;;;;;;;;;;5053166;28;20714;-78
2021/11/22 10:41:14;;;;;;;6.97;6.22;;;;;;;;;;5053890;28;20196;-80
2021/11/22 10:43:51;;;;;;;6.20;5.25;;;;;;;;;;5054429;28;20626;-81
2021/11/22 10:46:25;;;;;;;6.38;5.75;;;;;;;;;;5054389;28;20541;-80
2021/11/22 10:48:52;;;;;;;5.65;5.15;;;;;;;;;;5054242;28;20174;-79
2021/11/22 10:51:24;;;;;;;6.60;5.45;;;;;;;;;;5052568;28;20988;-83
2021/11/22 10:53:52;;;;;;;6.00;5.40;;;;;;;;;;5052971;28;20188;-81
2021/11/22 10:56:19;;;;;;;6.13;5.50;;;;;;;;;;5054218;28;20546;-82
2021/11/22 10:58:51;;;;;;;6.50;5.90;;;;;;;;;;5052763;28;20186;-80
2021/11/22 11:01:19;;;;;;;7.50;4.95;;;;;;;;;;5053596;28;20292;-81
2021/11/22 11:03:52;;;;;;;6.07;5.47;;;;;;;;;;5054117;28;20196;-82
2021/11/22 11:06:18;;;;;;;9.45;5.32;;;;;;;;;;5054080;28;20205;-80
2021/11/22 11:08:45;;;;;;;4.25;3.95;;;;;;;;;;5053824;28;20186;-82
2021/11/22 11:11:15;;;;;;;5.97;3.75;;;;;;;;;;5053543;28;20197;-79
2021/11/22 11:13:48;;;;;;;5.13;4.72;;;;;;;;;;5054010;28;20173;-80
2021/11/22 11:16:15;;;;;;;5.00;4.50;;;;;;;;;;5053796;28;20180;-83
2021/11/22 11:18:41;;;;;;;3.77;3.47;;;;;;;;;;5053723;28;20173;-80
2021/11/22 11:21:07;;;;;;;4.43;3.83;;;;;;;;;;5053257;28;20507;-83
2021/11/22 11:23:34;;;;;;;4.70;4.07;;;;;;;;;;5053623;28;20412;-81
2021/11/22 11:26:00;;;;;;;3.93;3.53;;;;;;;;;;5053639;28;20439;-80
2021/11/22 11:28:27;;;;;;;3.73;3.43;;;;;;;;;;5053580;28;20506;-82
2021/11/22 11:30:53;;;;;;;3.33;3.03;;;;;;;;;;5053156;28;20463;-80
2021/11/22 11:33:19;;;;;;;4.17;3.60;;;;;;;;;;5053639;28;20436;-82
2021/11/22 11:35:47;;;;;;;4.25;3.85;;;;;;;;;;5053671;28;20401;-81
2021/11/22 11:38:13;;;;;;;4.83;3.80;;;;;;;;;;5053697;28;20251;-80
2021/11/22 11:40:58;;;;;;;4.00;3.70;;;;;;;;;;5052957;28;21076;-82
2021/11/22 11:43:42;;;;;;;5.53;5.07;;;;;;;;;;5053208;28;20424;-81
2021/11/22 11:46:08;;;;;;;7.20;6.60;;;;;;;;;;5053335;28;20442;-81
2021/11/22 11:48:56;;;;;;;7.40;6.80;;;;;;;;;;5053089;28;20771;-81
2021/11/22 11:51:28;;;;;;;8.17;6.17;;;;;;;;;;5052948;28;20431;-83
2021/11/22 11:54:05;;;;;;;8.73;7.85;;;;;;;;;;5051889;28;20935;-81
2021/11/22 11:56:31;;;;;;;7.45;6.75;;;;;;;;;;5053396;28;20622;-81
2021/11/22 11:59:22;;;;;;;7.60;6.90;;;;;;;;;;5051727;28;20189;-80
2021/11/22 12:02:03;;;;;;;7.97;7.32;;;;;;;;;;5053072;28;20456;-80
2021/11/22 12:04:50;;;;;;;7.47;6.97;;;;;;;;;;5053229;28;20173;-80
2021/11/22 12:07:27;;;;;;;8.50;6.32;;;;;;;;;;5053238;28;20165;-80
2021/11/22 12:10:12;;;;;;;6.55;5.85;;;;;;;;;;5051398;28;20193;-81
2021/11/22 12:12:39;;;;;;;7.35;6.03;;;;;;;;;;5052948;28;20231;-80
2021/11/22 12:15:13;;;;;;;6.35;5.75;;;;;;;;;;5052861;28;20607;-80
2021/11/22 12:17:39;;;;;;;7.78;5.18;;;;;;;;;;5052860;28;20578;-80
2021/11/22 12:20:09;;;;;;;8.20;6.17;;;;;;;;;;5052688;28;20204;-81
2021/11/22 12:22:42;;;;;;;7.60;5.45;;;;;;;;;;5052773;28;20459;-81
2021/11/22 12:25:09;;;;;;;5.40;4.90;;;;;;;;;;5052697;28;20177;-81
2021/11/22 12:27:36;;;;;;;5.75;4.97;;;;;;;;;;5052874;28;20534;-81
2021/11/22 12:30:23;;;;;;;5.28;4.78;;;;;;;;;;5052459;28;20189;-81
2021/11/22 12:32:49;;;;;;;6.32;5.82;;;;;;;;;;5048851;28;20255;-81
2021/11/22 12:35:15;;;;;;;5.40;4.90;;;;;;;;;;5051214;28;20200;-82
2021/11/22 12:37:41;;;;;;;5.10;4.70;;;;;;;;;;5051414;28;20174;-81
2021/11/22 12:40:15;;;;;;;5.75;4.80;;;;;;;;;;5052449;28;20194;-79
2021/11/22 12:42:50;;;;;;;4.47;4.07;;;;;;;;;;5051250;28;20680;-80
2021/11/22 12:45:18;;;;;;;7.10;6.45;;;;;;;;;;5052694;28;20169;-80
2021/11/22 12:47:45;;;;;;;4.55;3.45;;;;;;;;;;5052947;28;20216;-80
2021/11/22 12:50:12;;;;;;;2.95;2.70;;;;;;;;;;5052495;28;20200;-81
2021/11/22 12:52:39;;;;;;;3.38;2.65;;;;;;;;;;5052851;28;20537;-82
2021/11/22 12:55:10;;;;;;;2.45;2.25;;;;;;;;;;5054068;28;20281;-80
2021/11/22 12:57:38;;;;;;;2.95;2.08;;;;;;;;;;5056639;28;20174;-81
2021/11/22 13:00:11;;;;;;;2.03;1.85;;;;;;;;;;5056164;28;20240;-79
2021/11/22 13:02:42;;;;;;;2.40;2.20;;;;;;;;;;5055039;28;20209;-82
2021/11/22 13:05:08;;;;;;;3.30;2.40;;;;;;;;;;5055122;28;20650;-81
2021/11/22 13:07:34;;;;;;;2.90;2.70;;;;;;;;;;5055004;28;20185;-81
2021/11/22 13:10:01;;;;;;;3.80;2.33;;;;;;;;;;5055885;28;20197;-80
2021/11/22 13:12:43;;;;;;;3.63;2.10;;;;;;;;;;5056427;28;20180;-81
2021/11/22 13:15:34;;;;;;;2.30;2.10;;;;;;;;;;5055080;28;20597;-81
2021/11/22 13:18:07;;;;;;;2.38;2.17;;;;;;;;;;5056185;28;20271;-81
2021/11/22 13:20:36;;;;;;;2.83;2.50;;;;;;;;;;5055944;28;20193;-80
2021/11/22 13:23:12;;;;;;;3.80;2.83;;;;;;;;;;5056085;28;20280;-81
2021/11/22 13:25:39;;;;;;;8.32;2.45;;;;;;;;;;5055962;28;20175;-80
2021/11/22 13:28:08;;;;;;;3.45;2.88;;;;;;;;;;5056069;28;20169;-81
2021/11/22 13:30:34;;;;;;;3.13;2.65;;;;;;;;;;5055545;28;20196;-81
2021/11/22 13:33:01;;;;;;;3.28;2.88;;;;;;;;;;5054681;28;20272;-82
2021/11/22 13:35:27;;;;;;;4.70;3.20;;;;;;;;;;5055788;28;20201;-81
2021/11/22 13:38:26;;;;;;;3.33;2.78;;;;;;;;;;5055759;28;20188;-82
2021/11/22 13:40:53;;;;;;;3.20;2.80;;;;;;;;;;5043358;28;20288;-83
2021/11/22 13:43:21;;;;;;;4.00;2.28;;;;;;;;;;5055663;28;20254;-83
2021/11/22 13:46:00;;;;;;;2.80;2.30;;;;;;;;;;5055682;28;20215;-80
2021/11/22 13:48:45;;;;;;;2.85;2.30;;;;;;;;;;5054290;28;20174;-81
2021/11/22 13:51:12;;;;;;;2.20;2.00;;;;;;;;;;5055198;28;20197;-81
2021/11/22 13:53:38;;;;;;;2.30;2.10;;;;;;;;;;5055355;28;20516;-81
2021/11/22 13:56:05;;;;;;;2.10;1.90;;;;;;;;;;5055481;28;20192;-81
2021/11/22 13:58:31;;;;;;;2.53;1.83;;;;;;;;;;5055398;28;20195;-81
2021/11/22 14:00:58;;;;;;;2.47;2.27;;;;;;;;;;5054943;28;20193;-82
2021/11/22 14:03:28;;;;;;;6.18;1.73;;;;;;;;;;5055491;28;20900;-82
2021/11/22 14:05:54;;;;;;;1.85;1.75;;;;;;;;;;5053848;28;20271;-82
2021/11/22 14:08:21;;;;;;;1.70;1.60;;;;;;;;;;5055476;28;20193;-81
2021/11/22 14:10:47;;;;;;;2.50;2.30;;;;;;;;;;5053471;28;20197;-80
2021/11/22 14:13:18;;;;;;;3.15;2.85;;;;;;;;;;5054001;28;20308;-81
2021/11/22 14:15:45;;;;;;;2.30;2.13;;;;;;;;;;5055195;28;20178;-81
2021/11/22 14:18:14;;;;;;;2.28;2.00;;;;;;;;;;5054954;28;20207;-82
2021/11/22 14:20:45;;;;;;;4.80;2.53;;;;;;;;;;5054603;28;20653;-79
2021/11/22 14:23:11;;;;;;;3.35;2.83;;;;;;;;;;5054791;28;20678;-80
2021/11/22 14:25:37;;;;;;;3.70;3.22;;;;;;;;;;5054814;28;20642;-80
2021/11/22 14:28:17;;;;;;;4.33;3.60;;;;;;;;;;5054703;28;20188;-79
2021/11/22 14:30:44;;;;;;;4.45;3.90;;;;;;;;;;5054382;28;20833;-82
2021/11/22 14:33:12;;;;;;;4.15;3.78;;;;;;;;;;5054691;28;20173;-82